Time;durP1;ratioP1;P1;durP2;ratioP2;P2;SDS_P1;SDS_P2;PMS_P1;PMS_P2;Temp;Humidity;BMP_temperature;BMP_pressure;BME280_temperature;BME280_humidity;BME280_pressure;Samples;Min_cycle;Max_cycle;Signal;HPM_P1;HPM_P2
2024/01/19 00:01:05;;;;;;;12.63;8.60;;;-1.80;99.90;;;;;;5052177;28;20660;-50
2024/01/19 00:03:30;;;;;;;13.50;9.20;;;-1.70;99.90;;;;;;5052384;28;20243;-53
2024/01/19 00:05:55;;;;;;;13.93;8.90;;;-1.70;99.90;;;;;;5051909;28;20207;-52
2024/01/19 00:08:21;;;;;;;15.13;8.77;;;-1.80;99.90;;;;;;5052167;28;20220;-52
2024/01/19 00:10:46;;;;;;;10.23;8.60;;;-1.80;99.90;;;;;;5051657;28;20195;-54
2024/01/19 00:13:12;;;;;;;11.80;9.13;;;-1.80;99.90;;;;;;5054188;28;20200;-50
2024/01/19 00:15:37;;;;;;;10.17;8.63;;;-1.70;99.90;;;;;;5051997;28;20292;-53
2024/01/19 00:18:03;;;;;;;15.83;9.10;;;-1.60;99.90;;;;;;5051778;28;20206;-53
2024/01/19 00:20:28;;;;;;;11.37;7.87;;;-1.90;99.90;;;;;;5051825;28;20568;-53
2024/01/19 00:22:54;;;;;;;11.13;7.07;;;-1.70;99.90;;;;;;5051291;28;20660;-52
2024/01/19 00:25:19;;;;;;;12.30;8.47;;;-1.80;99.90;;;;;;5051552;28;20212;-53
2024/01/19 00:27:46;;;;;;;12.63;7.63;;;-1.90;99.90;;;;;;5053112;28;20266;-53
2024/01/19 00:30:11;;;;;;;8.60;7.00;;;-2.00;99.90;;;;;;5052685;28;20653;-53
2024/01/19 00:32:37;;;;;;;12.40;7.63;;;-2.00;99.90;;;;;;5051089;28;20234;-53
2024/01/19 00:35:03;;;;;;;15.07;8.50;;;-2.10;99.90;;;;;;5052049;28;20749;-54
2024/01/19 00:37:28;;;;;;;10.53;6.80;;;-2.00;99.90;;;;;;5045944;28;20296;-54
2024/01/19 00:39:54;;;;;;;9.27;7.27;;;-1.70;99.90;;;;;;5052268;28;20194;-52
2024/01/19 00:42:19;;;;;;;10.57;7.07;;;-1.70;99.90;;;;;;5050213;28;20252;-54
2024/01/19 00:44:45;;;;;;;12.03;6.93;;;-1.50;99.90;;;;;;5048898;28;20214;-52
2024/01/19 00:47:10;;;;;;;9.07;6.60;;;-1.40;99.90;;;;;;5042237;28;20518;-54
2024/01/19 00:49:36;;;;;;;12.70;7.70;;;-1.40;99.90;;;;;;5044423;28;20214;-51
2024/01/19 00:52:02;;;;;;;8.37;6.93;;;-1.50;99.90;;;;;;5050135;28;20249;-56
2024/01/19 00:54:28;;;;;;;12.13;8.17;;;-1.60;99.90;;;;;;5046489;28;20290;-53
2024/01/19 00:56:54;;;;;;;8.90;7.07;;;-1.90;99.90;;;;;;5029632;28;20204;-53
2024/01/19 00:59:19;;;;;;;10.80;7.63;;;-2.00;99.90;;;;;;5047325;28;20194;-52
2024/01/19 01:01:45;;;;;;;10.33;7.83;;;-2.10;99.90;;;;;;5046546;28;20202;-52
2024/01/19 01:04:11;;;;;;;13.40;9.73;;;-2.10;99.90;;;;;;5029306;28;20537;-54
2024/01/19 01:06:36;;;;;;;14.33;8.40;;;-2.10;99.90;;;;;;5033488;28;20372;-53
2024/01/19 01:09:02;;;;;;;12.57;8.80;;;-2.20;99.90;;;;;;5032506;28;20286;-52
2024/01/19 01:11:28;;;;;;;11.60;8.23;;;-1.90;99.90;;;;;;5046637;28;20798;-53
2024/01/19 01:13:54;;;;;;;10.40;7.27;;;-2.10;99.90;;;;;;5031232;28;20186;-52
2024/01/19 01:16:19;;;;;;;11.13;8.73;;;-2.00;99.90;;;;;;5040309;28;20191;-58
2024/01/19 01:18:45;;;;;;;9.90;7.63;;;-1.90;99.90;;;;;;5047113;28;20216;-61
2024/01/19 01:21:11;;;;;;;11.20;8.07;;;-2.10;99.90;;;;;;5049866;28;20606;-59
2024/01/19 01:23:36;;;;;;;10.07;7.70;;;-1.90;99.90;;;;;;5046683;28;20580;-60
2024/01/19 01:26:02;;;;;;;11.67;8.57;;;-1.90;99.90;;;;;;5033467;28;20752;-60
2024/01/19 01:28:28;;;;;;;11.37;7.70;;;-2.10;99.90;;;;;;5048419;28;20226;-53
2024/01/19 01:30:53;;;;;;;11.63;8.27;;;-2.20;99.90;;;;;;5052739;28;20238;-52
2024/01/19 01:33:20;;;;;;;10.73;8.03;;;-2.30;99.90;;;;;;5051174;28;20202;-52
2024/01/19 01:35:45;;;;;;;12.97;9.00;;;-2.20;99.90;;;;;;5049403;28;20208;-52
2024/01/19 01:38:11;;;;;;;11.20;7.83;;;-2.00;99.90;;;;;;5047425;28;20205;-52
2024/01/19 01:40:36;;;;;;;12.90;8.67;;;-1.80;99.90;;;;;;5046289;28;20809;-52
2024/01/19 01:43:04;;;;;;;10.90;8.07;;;-1.80;99.90;;;;;;5047647;28;20590;-52
2024/01/19 01:45:30;;;;;;;9.90;8.33;;;-1.70;99.90;;;;;;5049232;28;20275;-51
2024/01/19 01:47:56;;;;;;;16.33;9.17;;;-1.90;99.90;;;;;;5052448;28;20210;-51
2024/01/19 01:50:22;;;;;;;11.07;8.43;;;-2.00;99.90;;;;;;5049721;28;20639;-52
2024/01/19 01:52:48;;;;;;;15.73;8.37;;;-2.10;99.90;;;;;;5050550;28;20219;-51
2024/01/19 01:55:15;;;;;;;13.93;8.57;;;-2.20;99.90;;;;;;5053339;28;20199;-52
2024/01/19 01:57:41;;;;;;;11.30;7.63;;;-2.00;99.90;;;;;;5054317;28;20228;-52
2024/01/19 02:00:09;;;;;;;10.00;8.63;;;-2.10;99.90;;;;;;5043635;28;20200;-52
2024/01/19 02:02:38;;;;;;;10.73;8.17;;;-2.20;99.90;;;;;;5054056;28;20305;-52
2024/01/19 02:05:05;;;;;;;12.63;8.53;;;-2.40;99.90;;;;;;5054218;28;20267;-52
2024/01/19 02:07:31;;;;;;;11.93;8.87;;;-2.50;99.90;;;;;;5056056;28;20791;-52
2024/01/19 02:09:56;;;;;;;13.50;8.67;;;-2.40;99.90;;;;;;5053829;28;20736;-52
2024/01/19 02:12:22;;;;;;;13.70;9.07;;;-2.10;99.90;;;;;;5054032;28;20210;-52
2024/01/19 02:14:47;;;;;;;10.70;7.93;;;-2.00;99.90;;;;;;5054024;28;20232;-52
2024/01/19 02:17:13;;;;;;;13.87;8.50;;;-2.00;99.90;;;;;;5054243;28;20306;-52
2024/01/19 02:19:39;;;;;;;10.00;8.23;;;-2.10;99.90;;;;;;5053638;28;20203;-52
2024/01/19 02:22:05;;;;;;;9.13;7.63;;;-2.00;99.90;;;;;;5056082;28;20792;-52
2024/01/19 02:24:33;;;;;;;12.00;7.87;;;-2.00;99.90;;;;;;5054588;28;20222;-52
2024/01/19 02:26:59;;;;;;;12.30;6.97;;;-1.80;99.90;;;;;;5053806;28;20206;-52
2024/01/19 02:29:25;;;;;;;12.40;8.50;;;-1.80;99.90;;;;;;5054283;28;20719;-50
2024/01/19 02:31:50;;;;;;;12.67;7.87;;;-2.00;99.90;;;;;;5053552;28;20211;-51
2024/01/19 02:34:16;;;;;;;12.87;8.37;;;-1.90;99.90;;;;;;5054282;28;20211;-51
2024/01/19 02:36:42;;;;;;;14.63;8.07;;;-1.90;99.90;;;;;;5041465;28;20214;-51
2024/01/19 02:39:08;;;;;;;10.43;8.13;;;-1.90;99.90;;;;;;5052354;28;20218;-51
2024/01/19 02:41:33;;;;;;;14.53;8.33;;;-1.80;99.90;;;;;;5054392;28;20648;-52
2024/01/19 02:43:59;;;;;;;8.10;6.57;;;-1.80;99.90;;;;;;5048914;28;20634;-52
2024/01/19 02:46:24;;;;;;;12.10;7.03;;;-1.90;99.90;;;;;;5053651;28;20709;-52
2024/01/19 02:48:50;;;;;;;7.93;6.33;;;-1.80;99.90;;;;;;5053682;28;20260;-53
2024/01/19 02:51:15;;;;;;;14.80;7.93;;;-1.80;99.90;;;;;;5056881;28;20201;-52
2024/01/19 02:53:40;;;;;;;10.63;6.70;;;-1.80;99.90;;;;;;5056098;28;20209;-52
2024/01/19 02:56:06;;;;;;;11.30;7.10;;;-2.10;99.90;;;;;;5060659;28;20207;-52
2024/01/19 02:58:32;;;;;;;19.00;6.40;;;-2.00;99.90;;;;;;5062808;28;20193;-52
2024/01/19 03:00:59;;;;;;;12.07;6.77;;;-2.00;99.90;;;;;;5055752;28;20203;-52
2024/01/19 03:03:25;;;;;;;8.23;6.37;;;-2.00;99.90;;;;;;5057566;28;20560;-52
2024/01/19 03:05:50;;;;;;;10.50;6.83;;;-1.90;99.90;;;;;;5062831;28;20233;-52
2024/01/19 03:08:16;;;;;;;10.03;6.50;;;-2.10;99.90;;;;;;5060546;28;20276;-55
2024/01/19 03:10:42;;;;;;;6.93;5.53;;;-2.10;99.90;;;;;;5056671;28;20240;-52
2024/01/19 03:13:07;;;;;;;7.87;5.73;;;-2.20;99.90;;;;;;5057232;28;20198;-52
2024/01/19 03:15:33;;;;;;;11.73;6.60;;;-2.10;99.90;;;;;;5067052;28;20755;-52
2024/01/19 03:17:58;;;;;;;10.90;6.20;;;-1.90;99.90;;;;;;5064299;28;20213;-52
2024/01/19 03:20:23;;;;;;;6.27;4.83;;;-2.20;99.90;;;;;;5059839;28;20190;-52
2024/01/19 03:22:49;;;;;;;10.07;5.50;;;-2.30;99.90;;;;;;5059347;28;20257;-52
2024/01/19 03:25:15;;;;;;;9.80;6.10;;;-2.30;99.90;;;;;;5062014;28;21044;-51
2024/01/19 03:27:40;;;;;;;10.20;5.43;;;-2.20;99.90;;;;;;5061072;28;20244;-52
2024/01/19 03:30:06;;;;;;;10.67;5.23;;;-2.20;99.90;;;;;;5056818;28;20741;-52
2024/01/19 03:32:31;;;;;;;7.87;5.43;;;-2.30;99.90;;;;;;5058029;28;20771;-51
2024/01/19 03:34:57;;;;;;;10.03;5.83;;;-2.30;99.90;;;;;;5065103;28;20930;-51
2024/01/19 03:37:23;;;;;;;6.53;5.07;;;-2.30;99.90;;;;;;5061405;28;20218;-52
2024/01/19 03:39:48;;;;;;;8.97;5.87;;;-2.10;99.90;;;;;;5055329;28;20202;-52
2024/01/19 03:42:14;;;;;;;8.10;5.60;;;-2.10;99.90;;;;;;5057440;28;20906;-52
2024/01/19 03:44:40;;;;;;;7.33;4.60;;;-2.10;99.90;;;;;;5071953;28;20217;-51
2024/01/19 03:47:05;;;;;;;7.90;4.77;;;-1.80;99.90;;;;;;5070750;28;20194;-51
2024/01/19 03:49:31;;;;;;;12.23;4.97;;;-1.70;99.90;;;;;;5071697;28;20255;-52
2024/01/19 03:52:07;;;;;;;13.13;5.47;;;-1.60;99.90;;;;;;5065731;28;20210;-52
2024/01/19 03:54:33;;;;;;;11.53;5.80;;;-1.90;99.90;;;;;;5072110;28;20813;-52
2024/01/19 03:57:02;;;;;;;8.33;5.33;;;-2.00;99.90;;;;;;5071847;28;20202;-51
2024/01/19 03:59:28;;;;;;;7.93;5.87;;;-2.10;99.90;;;;;;5071759;28;20246;-50
2024/01/19 04:01:55;;;;;;;13.10;5.80;;;-2.10;99.90;;;;;;5073948;28;20210;-51
2024/01/19 04:04:20;;;;;;;6.40;5.17;;;-2.10;99.90;;;;;;5071797;28;20231;-52
2024/01/19 04:06:46;;;;;;;9.67;5.80;;;-2.10;99.90;;;;;;5071961;28;20517;-51
2024/01/19 04:09:15;;;;;;;10.10;5.37;;;-2.10;99.90;;;;;;5061204;28;20201;-62
2024/01/19 04:11:40;;;;;;;6.70;5.60;;;-2.10;99.90;;;;;;5071806;28;20272;-51
2024/01/19 04:14:06;;;;;;;8.17;5.50;;;-2.10;99.90;;;;;;5068908;28;20207;-51
2024/01/19 04:16:31;;;;;;;5.90;5.17;;;-2.00;99.90;;;;;;5069682;28;20239;-52
2024/01/19 04:18:57;;;;;;;5.70;4.93;;;-2.00;99.90;;;;;;5069596;28;20313;-52
2024/01/19 04:21:22;;;;;;;6.07;4.57;;;-1.70;99.90;;;;;;5071512;28;20193;-52
2024/01/19 04:23:48;;;;;;;6.40;4.67;;;-1.60;99.90;;;;;;5071880;28;20210;-51
2024/01/19 04:26:14;;;;;;;7.27;5.37;;;-1.80;99.90;;;;;;5071127;28;20213;-51
2024/01/19 04:28:39;;;;;;;9.03;5.03;;;-1.90;99.90;;;;;;5071078;28;20202;-51
2024/01/19 04:31:08;;;;;;;6.10;3.97;;;-1.80;99.90;;;;;;5069081;28;20202;-52
2024/01/19 04:33:34;;;;;;;11.90;5.30;;;-1.90;99.90;;;;;;5070801;28;20262;-53
2024/01/19 04:35:59;;;;;;;7.43;4.97;;;-2.00;99.90;;;;;;5073488;28;20845;-53
2024/01/19 04:38:25;;;;;;;6.67;4.57;;;-1.80;99.90;;;;;;5071156;28;20212;-52
2024/01/19 04:40:50;;;;;;;7.00;4.93;;;-1.70;99.90;;;;;;5068854;28;20755;-50
2024/01/19 04:43:16;;;;;;;4.63;4.20;;;-1.70;99.90;;;;;;5069331;28;20218;-51
2024/01/19 04:45:41;;;;;;;9.20;6.00;;;-1.80;99.90;;;;;;5069333;28;20213;-51
2024/01/19 04:48:07;;;;;;;5.90;4.87;;;-1.70;99.90;;;;;;5071076;28;20186;-51
2024/01/19 04:50:32;;;;;;;12.70;4.53;;;-1.80;99.90;;;;;;5068763;28;20216;-52
2024/01/19 04:52:57;;;;;;;10.83;4.93;;;-1.50;99.90;;;;;;5072062;28;20210;-52
2024/01/19 04:55:23;;;;;;;12.90;4.80;;;-1.60;99.90;;;;;;5070978;28;20786;-52
2024/01/19 04:57:48;;;;;;;7.73;4.37;;;-1.50;99.90;;;;;;5070657;28;20216;-52
2024/01/19 05:00:14;;;;;;;6.27;4.43;;;-1.50;99.90;;;;;;5070294;28;20206;-56
2024/01/19 05:02:40;;;;;;;7.00;4.77;;;-1.30;99.90;;;;;;5070569;28;20939;-52
2024/01/19 05:05:06;;;;;;;6.20;3.87;;;-1.30;99.90;;;;;;5070854;28;20247;-52
2024/01/19 05:07:31;;;;;;;3.70;3.40;;;-1.30;99.90;;;;;;5072132;28;20789;-51
2024/01/19 05:10:00;;;;;;;8.20;3.67;;;-1.20;99.90;;;;;;5070397;28;20194;-52
2024/01/19 05:12:25;;;;;;;4.90;3.20;;;-1.30;99.90;;;;;;5070896;28;20574;-51
2024/01/19 05:14:51;;;;;;;5.43;2.80;;;-1.40;99.90;;;;;;5070627;28;20205;-51
2024/01/19 05:17:17;;;;;;;4.20;3.77;;;-1.20;99.90;;;;;;5070753;28;20197;-52
2024/01/19 05:19:43;;;;;;;4.03;2.60;;;-1.30;99.90;;;;;;5071172;28;20266;-51
2024/01/19 05:22:09;;;;;;;6.03;3.67;;;-1.30;99.90;;;;;;5067621;28;20198;-52
2024/01/19 05:24:35;;;;;;;7.40;4.50;;;-1.30;99.90;;;;;;5070939;28;20287;-52
2024/01/19 05:27:00;;;;;;;8.13;3.30;;;-1.40;99.90;;;;;;5071552;28;20931;-61
2024/01/19 05:29:26;;;;;;;7.27;3.33;;;-1.20;99.90;;;;;;5072692;28;20215;-53
2024/01/19 05:31:51;;;;;;;3.77;3.30;;;-1.20;99.90;;;;;;5075249;28;20278;-53
2024/01/19 05:34:17;;;;;;;8.70;3.33;;;-1.10;99.90;;;;;;5072302;28;20206;-52
2024/01/19 05:36:42;;;;;;;7.40;3.97;;;-1.10;99.90;;;;;;5074965;28;20262;-53
2024/01/19 05:39:08;;;;;;;6.70;3.50;;;-1.20;99.90;;;;;;5076790;28;20729;-53
2024/01/19 05:41:34;;;;;;;4.70;3.23;;;-1.40;99.90;;;;;;5074905;28;20250;-53
2024/01/19 05:44:00;;;;;;;7.10;2.87;;;-1.30;99.90;;;;;;5067975;28;20227;-53
2024/01/19 05:46:25;;;;;;;3.93;2.87;;;-1.30;99.90;;;;;;5069526;28;20252;-53
2024/01/19 05:48:51;;;;;;;7.50;3.80;;;-1.40;99.90;;;;;;5073986;28;20648;-52
2024/01/19 05:51:17;;;;;;;3.53;2.90;;;-1.40;99.90;;;;;;5069132;28;20195;-52
2024/01/19 05:53:43;;;;;;;4.33;2.40;;;-1.20;99.90;;;;;;5070903;28;20253;-51
2024/01/19 05:56:09;;;;;;;3.17;2.57;;;-1.10;99.90;;;;;;5075458;28;20205;-51
2024/01/19 05:58:34;;;;;;;6.83;2.97;;;-1.10;99.90;;;;;;5074013;28;20202;-51
2024/01/19 06:01:02;;;;;;;2.93;2.30;;;-1.10;99.90;;;;;;5073756;28;20217;-51
2024/01/19 06:03:33;;;;;;;7.33;3.03;;;-1.10;99.90;;;;;;5073873;28;20208;-52
2024/01/19 06:06:00;;;;;;;4.43;2.77;;;-1.10;99.90;;;;;;5072711;28;20218;-52
2024/01/19 06:08:25;;;;;;;4.53;2.73;;;-1.40;99.90;;;;;;5074333;28;20197;-52
2024/01/19 06:10:51;;;;;;;11.40;3.57;;;-1.50;99.90;;;;;;5070880;28;20207;-52
2024/01/19 06:13:16;;;;;;;6.30;2.77;;;-1.50;99.90;;;;;;5065285;28;20194;-52
2024/01/19 06:15:42;;;;;;;5.87;3.10;;;-1.20;99.90;;;;;;5067562;28;20428;-51
2024/01/19 06:18:07;;;;;;;8.27;2.83;;;-1.30;99.90;;;;;;5071360;28;20198;-51
2024/01/19 06:20:34;;;;;;;5.87;2.20;;;-1.30;99.90;;;;;;5073880;28;20687;-52
2024/01/19 06:23:00;;;;;;;6.47;3.70;;;-1.10;99.90;;;;;;5073143;28;20208;-51
2024/01/19 06:25:25;;;;;;;6.07;2.60;;;-1.10;99.90;;;;;;5073526;28;20617;-51
2024/01/19 06:27:51;;;;;;;9.23;2.87;;;-1.10;99.90;;;;;;5070638;28;20219;-54
2024/01/19 06:30:16;;;;;;;4.53;2.87;;;-1.10;99.90;;;;;;5071955;28;20211;-51
2024/01/19 06:32:42;;;;;;;3.27;2.70;;;-1.10;99.90;;;;;;5070748;28;20206;-64
2024/01/19 06:35:07;;;;;;;7.10;3.47;;;-1.30;99.90;;;;;;5072663;28;20939;-53
2024/01/19 06:37:33;;;;;;;2.73;2.43;;;-1.30;99.90;;;;;;5073184;28;20197;-53
2024/01/19 06:39:59;;;;;;;3.97;2.60;;;-1.00;99.90;;;;;;5072025;28;20214;-52
2024/01/19 06:42:26;;;;;;;6.30;3.23;;;-1.00;99.90;;;;;;5079731;28;20210;-52
2024/01/19 06:44:52;;;;;;;4.80;3.07;;;-0.90;99.90;;;;;;5075748;28;20215;-55
2024/01/19 06:47:18;;;;;;;3.20;2.90;;;-0.90;99.90;;;;;;5063575;28;20209;-53
2024/01/19 06:49:45;;;;;;;3.53;2.70;;;-0.80;99.90;;;;;;5071763;28;20195;-53
2024/01/19 06:52:10;;;;;;;8.77;3.20;;;-0.80;99.90;;;;;;5078717;28;20199;-53
2024/01/19 06:54:36;;;;;;;9.43;2.80;;;-0.90;99.90;;;;;;5079216;28;20202;-50
2024/01/19 06:57:02;;;;;;;3.43;2.83;;;-0.90;99.90;;;;;;5079249;28;20278;-54
2024/01/19 06:59:27;;;;;;;4.13;2.67;;;-0.90;99.90;;;;;;5080488;28;20288;-67
2024/01/19 07:01:52;;;;;;;8.80;2.27;;;-1.00;99.90;;;;;;5077877;28;20276;-66
2024/01/19 07:04:18;;;;;;;4.33;3.03;;;-0.80;99.90;;;;;;5071729;28;20672;-56
2024/01/19 07:06:43;;;;;;;3.50;2.40;;;-0.80;99.90;;;;;;5071775;28;20194;-53
2024/01/19 07:09:09;;;;;;;4.40;2.53;;;-0.50;99.90;;;;;;5132125;22;20729;-53
2024/01/19 07:11:35;;;;;;;6.37;2.77;;;-0.20;99.90;;;;;;5052436;28;20638;-53
2024/01/19 07:14:01;;;;;;;3.50;3.13;;;-0.20;99.90;;;;;;5078504;28;20210;-60
2024/01/19 07:16:26;;;;;;;7.10;3.23;;;0.20;99.90;;;;;;5079843;28;20202;-51
2024/01/19 07:18:52;;;;;;;7.10;3.77;;;-0.10;99.90;;;;;;5080676;28;20633;-53
2024/01/19 07:21:17;;;;;;;5.23;2.53;;;-0.60;99.90;;;;;;5078609;28;20198;-52
2024/01/19 07:23:43;;;;;;;4.67;3.10;;;-0.60;99.90;;;;;;5080575;28;20213;-52
2024/01/19 07:26:09;;;;;;;10.50;6.70;;;-0.60;99.90;;;;;;5073103;28;20217;-52
2024/01/19 07:28:34;;;;;;;6.73;2.90;;;-0.70;99.90;;;;;;5059487;28;20198;-53
2024/01/19 07:31:00;;;;;;;4.97;3.20;;;-0.70;99.90;;;;;;5073594;28;20194;-52
2024/01/19 07:33:26;;;;;;;4.13;2.90;;;-0.60;99.90;;;;;;5055127;28;20194;-53
2024/01/19 07:35:52;;;;;;;4.90;2.87;;;-0.70;99.90;;;;;;5077271;28;20199;-52
2024/01/19 07:38:17;;;;;;;5.03;3.20;;;-0.70;99.90;;;;;;5081976;28;20255;-52
2024/01/19 07:40:44;;;;;;;3.97;3.33;;;-0.70;99.90;;;;;;5078610;28;20209;-51
2024/01/19 07:43:09;;;;;;;4.20;2.70;;;-0.60;99.90;;;;;;5073796;28;20239;-51
2024/01/19 07:45:35;;;;;;;4.30;3.37;;;-0.70;99.90;;;;;;5072817;28;20333;-52
2024/01/19 07:48:00;;;;;;;8.40;3.43;;;-0.70;99.90;;;;;;5083987;28;20208;-51
2024/01/19 07:50:26;;;;;;;3.80;3.40;;;-0.80;99.90;;;;;;5078733;28;20197;-52
2024/01/19 07:52:51;;;;;;;6.93;3.80;;;-0.70;99.90;;;;;;5079116;28;20219;-53
2024/01/19 07:55:17;;;;;;;5.40;3.50;;;-0.70;99.90;;;;;;5076922;28;20201;-53
2024/01/19 07:57:42;;;;;;;7.30;3.50;;;-0.70;99.90;;;;;;5070872;28;20206;-51
2024/01/19 08:00:08;;;;;;;7.07;2.93;;;-0.90;99.90;;;;;;5065698;28;20739;-53
2024/01/19 08:02:34;;;;;;;7.37;3.83;;;-0.70;99.90;;;;;;5044385;28;20289;-61
2024/01/19 08:05:00;;;;;;;8.47;4.20;;;-0.70;99.90;;;;;;5065537;28;20808;-61
2024/01/19 08:07:28;;;;;;;4.07;3.30;;;-0.70;99.90;;;;;;5065447;28;20206;-61
2024/01/19 08:09:54;;;;;;;7.33;3.70;;;-0.60;99.90;;;;;;5068297;28;20559;-61
2024/01/19 08:12:19;;;;;;;6.37;4.87;;;-0.50;99.90;;;;;;5069112;28;20883;-62
2024/01/19 08:14:45;;;;;;;7.73;3.30;;;-0.70;99.90;;;;;;5076453;28;20214;-62
2024/01/19 08:17:10;;;;;;;5.73;3.93;;;-0.70;99.90;;;;;;5078333;28;20210;-52
2024/01/19 08:19:36;;;;;;;4.70;4.00;;;-0.70;99.90;;;;;;5087795;28;20296;-52
2024/01/19 08:22:01;;;;;;;6.07;4.73;;;-0.60;99.90;;;;;;5063212;28;20634;-52
2024/01/19 08:24:27;;;;;;;9.60;5.00;;;-0.40;99.90;;;;;;5071153;28;20256;-60
2024/01/19 08:26:53;;;;;;;8.40;4.53;;;-0.60;99.90;;;;;;5064187;28;20233;-64
2024/01/19 08:29:19;;;;;;;11.40;6.10;;;-0.60;99.90;;;;;;5070449;28;20211;-51
2024/01/19 08:31:44;;;;;;;8.93;4.63;;;-0.60;99.90;;;;;;5070205;28;20580;-52
2024/01/19 08:34:13;;;;;;;6.70;4.40;;;-0.70;99.90;;;;;;5077083;28;20203;-52
2024/01/19 08:36:42;;;;;;;5.10;4.40;;;-0.50;99.90;;;;;;5072850;28;20260;-52
2024/01/19 08:39:09;;;;;;;6.57;5.03;;;-0.50;99.90;;;;;;5082067;28;20229;-52
2024/01/19 08:41:44;;;;;;;9.73;5.47;;;-0.40;99.90;;;;;;5078489;28;20555;-52
2024/01/19 08:44:10;;;;;;;6.23;4.90;;;-0.60;99.90;;;;;;5071886;28;20270;-52
2024/01/19 08:46:42;;;;;;;6.63;4.70;;;-0.50;99.90;;;;;;5069677;28;20237;-52
2024/01/19 08:49:08;;;;;;;6.27;5.43;;;-0.50;99.90;;;;;;5069142;28;20191;-52
2024/01/19 08:51:33;;;;;;;8.70;5.47;;;-0.60;99.90;;;;;;5070120;28;20194;-52
2024/01/19 08:53:59;;;;;;;6.83;5.30;;;-0.50;99.90;;;;;;5070419;28;20613;-51
2024/01/19 08:56:24;;;;;;;8.70;5.30;;;-0.60;99.90;;;;;;5070596;28;20203;-52
2024/01/19 08:58:50;;;;;;;6.03;5.00;;;-0.50;99.90;;;;;;5065289;28;20203;-52
2024/01/19 09:01:19;;;;;;;6.27;5.27;;;-0.50;99.90;;;;;;5073602;28;20705;-51
2024/01/19 09:03:45;;;;;;;8.90;4.33;;;-0.30;99.90;;;;;;5073040;28;20234;-52
2024/01/19 09:06:10;;;;;;;6.03;5.27;;;-0.30;99.90;;;;;;5073616;28;20850;-50
2024/01/19 09:08:36;;;;;;;6.13;4.93;;;-0.40;99.90;;;;;;5075182;28;20699;-52
2024/01/19 09:11:01;;;;;;;7.73;6.07;;;-0.40;99.90;;;;;;5091010;28;20299;-51
2024/01/19 09:13:27;;;;;;;10.37;6.13;;;-0.50;99.90;;;;;;5094595;27;20205;-51
2024/01/19 09:15:53;;;;;;;7.37;5.70;;;-0.50;99.90;;;;;;5093292;28;20202;-54
2024/01/19 09:18:19;;;;;;;9.73;6.30;;;-0.40;99.90;;;;;;5094575;27;20194;-51
2024/01/19 09:20:45;;;;;;;6.40;5.37;;;-0.40;99.90;;;;;;5094567;27;20330;-52
2024/01/19 09:23:11;;;;;;;7.80;5.83;;;-0.30;99.90;;;;;;5089744;28;20275;-52
2024/01/19 09:25:36;;;;;;;9.23;5.87;;;-0.30;99.90;;;;;;5094122;28;20212;-51
2024/01/19 09:28:02;;;;;;;6.63;4.90;;;-0.30;99.90;;;;;;5094624;27;20691;-51
2024/01/19 09:30:27;;;;;;;4.80;3.87;;;-0.20;99.90;;;;;;5093847;27;20202;-53
2024/01/19 09:32:53;;;;;;;6.57;4.40;;;-0.10;99.90;;;;;;5092460;28;20750;-52
2024/01/19 09:35:18;;;;;;;7.57;5.73;;;0.20;99.90;;;;;;5098377;27;20253;-52
2024/01/19 09:37:44;;;;;;;7.43;5.80;;;-0.10;99.90;;;;;;5076096;28;20198;-52
2024/01/19 09:40:10;;;;;;;11.90;5.50;;;-0.20;99.90;;;;;;5094682;27;21085;-51
2024/01/19 09:42:39;;;;;;;12.43;6.73;;;-0.20;99.90;;;;;;5075487;28;20560;-51
2024/01/19 09:45:07;;;;;;;7.43;5.93;;;-0.10;99.90;;;;;;5086441;27;20291;-51
2024/01/19 09:48:02;;;;;;;12.27;6.33;;;-0.10;99.90;;;;;;5095721;27;20662;-51
2024/01/19 09:50:36;;;;;;;9.57;6.37;;;-0.10;99.90;;;;;;5088884;28;20242;-52
2024/01/19 09:53:10;;;;;;;11.77;6.77;;;-0.10;99.90;;;;;;5094631;27;20193;-51
2024/01/19 09:55:35;;;;;;;8.77;6.30;;;-0.10;99.90;;;;;;5095877;27;20202;-52
2024/01/19 09:58:01;;;;;;;7.37;6.47;;;0.00;99.90;;;;;;5074136;28;20197;-52
2024/01/19 10:00:28;;;;;;;7.57;6.23;;;0.10;99.90;;;;;;5094782;28;20211;-52
2024/01/19 10:02:54;;;;;;;11.67;5.83;;;0.20;99.90;;;;;;5095230;27;20742;-53
2024/01/19 10:05:21;;;;;;;16.30;7.47;;;0.20;99.90;;;;;;5094035;27;20222;-52
2024/01/19 10:07:48;;;;;;;8.60;5.73;;;0.10;99.90;;;;;;5093715;28;20203;-53
2024/01/19 10:10:17;;;;;;;7.50;5.73;;;0.20;99.90;;;;;;5095313;27;20222;-52
2024/01/19 10:12:43;;;;;;;6.90;5.13;;;0.40;99.90;;;;;;5092334;27;20530;-51
2024/01/19 10:15:13;;;;;;;6.67;5.63;;;0.40;99.90;;;;;;5090296;27;20206;-52
2024/01/19 10:17:40;;;;;;;6.63;5.13;;;0.40;99.90;;;;;;5072975;28;20275;-51
2024/01/19 10:20:07;;;;;;;8.23;6.37;;;0.40;99.90;;;;;;5091135;27;20202;-52
2024/01/19 10:22:32;;;;;;;9.83;6.17;;;0.40;99.90;;;;;;5094401;27;20678;-52
2024/01/19 10:25:00;;;;;;;9.63;6.70;;;0.40;99.90;;;;;;5073455;28;20246;-52
2024/01/19 10:27:44;;;;;;;8.77;5.97;;;0.40;99.90;;;;;;5095214;27;20223;-51
2024/01/19 10:30:12;;;;;;;8.73;5.73;;;0.50;99.90;;;;;;5072382;28;20205;-52
2024/01/19 10:32:39;;;;;;;10.13;6.33;;;0.60;99.90;;;;;;5090552;28;20296;-52
2024/01/19 10:35:13;;;;;;;7.47;6.03;;;0.50;99.90;;;;;;5093036;28;20222;-51
2024/01/19 10:37:38;;;;;;;11.33;7.20;;;0.60;99.90;;;;;;5071516;28;20206;-52
2024/01/19 10:40:18;;;;;;;7.57;6.27;;;0.60;99.90;;;;;;5076255;28;20263;-53
2024/01/19 10:42:45;;;;;;;8.50;5.67;;;0.70;99.90;;;;;;5092366;27;20954;-53
2024/01/19 10:45:22;;;;;;;6.43;5.33;;;0.80;99.90;;;;;;5091736;28;20268;-50
2024/01/19 10:47:50;;;;;;;10.60;6.67;;;1.00;99.90;;;;;;5068152;28;20242;-52
2024/01/19 10:50:17;;;;;;;7.40;6.50;;;0.90;99.90;;;;;;5093565;27;20228;-52
2024/01/19 10:52:44;;;;;;;8.17;5.93;;;0.90;99.90;;;;;;5093798;27;20214;-52
2024/01/19 10:55:17;;;;;;;8.73;5.67;;;1.10;99.90;;;;;;5094898;27;20187;-51
2024/01/19 10:57:43;;;;;;;5.87;5.20;;;1.00;99.90;;;;;;5089106;27;20965;-51
2024/01/19 11:00:27;;;;;;;8.50;5.83;;;1.30;99.90;;;;;;5090896;27;20206;-51
2024/01/19 11:02:58;;;;;;;9.60;6.17;;;1.30;99.90;;;;;;5069948;27;20202;-52
2024/01/19 11:05:24;;;;;;;5.77;4.97;;;1.20;99.90;;;;;;5093623;27;20220;-51
2024/01/19 11:08:00;;;;;;;10.77;5.43;;;1.40;99.90;;;;;;5070937;28;20663;-51
2024/01/19 11:10:28;;;;;;;8.87;6.53;;;1.60;99.90;;;;;;5089688;27;20249;-51
2024/01/19 11:12:55;;;;;;;10.03;5.73;;;1.30;99.90;;;;;;5091883;27;20200;-51
2024/01/19 11:15:38;;;;;;;7.30;5.87;;;1.30;99.90;;;;;;5089991;28;20198;-59
2024/01/19 11:18:05;;;;;;;12.63;5.77;;;1.40;99.90;;;;;;5093074;27;20867;-51
2024/01/19 11:20:33;;;;;;;10.00;5.67;;;1.40;99.90;;;;;;5095627;27;20195;-57
2024/01/19 11:23:00;;;;;;;6.03;4.67;;;1.40;99.90;;;;;;5089496;27;20232;-55
2024/01/19 11:25:55;;;;;;;5.43;4.93;;;1.50;99.90;;;;;;5092102;28;20214;-54
2024/01/19 11:28:29;;;;;;;6.03;4.33;;;1.50;99.90;;;;;;5090596;27;20194;-54
2024/01/19 11:31:20;;;;;;;6.23;4.90;;;1.60;99.90;;;;;;5093740;27;20201;-54
2024/01/19 11:33:45;;;;;;;7.53;4.73;;;1.70;99.90;;;;;;5084163;28;20217;-54
2024/01/19 11:36:32;;;;;;;9.73;5.37;;;1.80;99.90;;;;;;5092523;28;20662;-51
2024/01/19 11:38:57;;;;;;;7.63;4.67;;;1.80;99.90;;;;;;5091392;28;20308;-51
2024/01/19 11:41:32;;;;;;;7.73;5.33;;;2.10;99.90;;;;;;5092269;28;20226;-51
2024/01/19 11:43:59;;;;;;;5.30;4.23;;;2.20;99.90;;;;;;5069485;28;20192;-56
2024/01/19 11:46:50;;;;;;;7.93;4.07;;;2.10;99.90;;;;;;5070674;28;20262;-53
2024/01/19 11:49:35;;;;;;;3.57;2.83;;;2.40;99.90;;;;;;5093432;27;20191;-54
2024/01/19 11:52:03;;;;;;;6.80;4.40;;;2.40;99.90;;;;;;5092614;27;20657;-51
2024/01/19 11:54:29;;;;;;;9.37;4.60;;;2.20;99.90;;;;;;5090532;27;20204;-55
2024/01/19 11:57:17;;;;;;;9.87;4.60;;;2.40;99.90;;;;;;5090887;27;20208;-53
2024/01/19 11:59:46;;;;;;;7.80;4.13;;;2.30;99.90;;;;;;5089779;27;20269;-53
2024/01/19 12:02:30;;;;;;;6.00;3.77;;;2.20;99.90;;;;;;5086265;27;20675;-52
2024/01/19 12:04:59;;;;;;;6.53;4.23;;;2.50;99.90;;;;;;5086826;28;20208;-52
2024/01/19 12:07:24;;;;;;;3.27;2.97;;;2.30;99.90;;;;;;5092081;27;21041;-53
2024/01/19 12:10:10;;;;;;;7.23;4.43;;;2.90;99.90;;;;;;5092191;27;20225;-51
2024/01/19 12:12:37;;;;;;;8.20;4.90;;;3.00;99.90;;;;;;5067159;27;20208;-62
2024/01/19 12:15:05;;;;;;;4.83;4.00;;;3.10;99.90;;;;;;5091982;28;20605;-61
2024/01/19 12:17:30;;;;;;;6.50;4.17;;;3.40;99.90;;;;;;5095934;27;20210;-62
2024/01/19 12:19:56;;;;;;;7.67;4.07;;;2.60;99.90;;;;;;5085850;27;20226;-53
2024/01/19 12:22:22;;;;;;;6.43;3.47;;;2.60;99.90;;;;;;5071242;28;20204;-56
2024/01/19 12:24:47;;;;;;;7.40;4.40;;;3.20;99.90;;;;;;5090531;27;20220;-52
2024/01/19 12:27:23;;;;;;;7.13;4.03;;;2.90;99.90;;;;;;5085202;28;20207;-52
2024/01/19 12:29:48;;;;;;;5.10;3.97;;;3.10;99.90;;;;;;5084046;28;20207;-52
2024/01/19 12:32:18;;;;;;;9.67;3.70;;;2.90;99.90;;;;;;5086590;28;21210;-52
2024/01/19 12:34:59;;;;;;;5.23;4.27;;;2.50;99.90;;;;;;5084185;28;20235;-52
2024/01/19 12:37:24;;;;;;;5.97;3.87;;;2.40;99.90;;;;;;5083732;28;20203;-53
2024/01/19 12:39:49;;;;;;;5.37;3.87;;;2.70;99.90;;;;;;5087182;27;20757;-52
2024/01/19 12:42:15;;;;;;;5.97;3.83;;;2.90;99.90;;;;;;5089848;27;21231;-53
2024/01/19 12:44:41;;;;;;;6.60;3.77;;;2.90;99.90;;;;;;5084750;28;20218;-60